Kuujjuarapik Airport
CYGW : rendu visible

Aérodrome :











RETROUVEZ-NOUS SUR...

 
LOGIN :

S'inscrire | Disclaimer

   EN    FR    IT 

 









Légende :    VFR   VFR Marginal   IFR   IFR Intensif   IFR Très Intensif
Visi : 
Plafond : 
>= 8 km
>= 3000ft
5 à 8 km
1000 à 3000 ft
1500m à 5 km
500 à 1000 ft
800 à 1500m
200 à 500 ft
< 800m
< 200 ft
Symboles :   Orages  Brouillard  Fortes neiges  Fortes précipitations  Vent > 20 kt






- Altitude de l'aérodrome : 34 ft
- Code IATA : YGW


CYGW - Kuujjuarapik

DERNIER METAR :
  • 241400Z AUTO 34003KT 290V360 9SM CLR M18/M22 A2988 RMK SLP122

METARs EXPIRÉS :
  • 241300Z AUTO 00000KT 9SM CLR M19/M22 A2988 RMK SLP123
  • 241200Z AUTO VRB02KT 9SM OVC150 M18/M22 A2988 RMK SLP122

TAF TAF CYGW
Valide du 24 à 12h jusqu'au 25 à 00h UTC


241138Z 2412/2424 06005KT P6SM SCT160
BECMG 2412/2414 06010KT
BECMG 2418/2420 02010KT RMK FCST BASED ON AUTO OBS. NXT FCST BY 241800Z



MET'MAP, la Météo Aéronautique d'un coup d'oeil ! - Copyright ORBIFLY Décembre 2007 - Disclaimer

ORBIFLY MET'MAP TEAM :

Programmation & Développement : Alexandra Zaïnal
Sur une idée originale de : Baudouin d'Aumeries
Assistance à la programmation : Marc-Olivier Méhu
Soutien technique & logistique : Manuel Goepfert

Contact : metmap@orbifly.com




SOURCES & CREDITS :

   NOAA       Earth
Advisory